Time;durP1;ratioP1;P1;durP2;ratioP2;P2;SDS_P1;SDS_P2;PMS_P1;PMS_P2;Temp;Humidity;BMP_temperature;BMP_pressure;BME280_temperature;BME280_humidity;BME280_pressure;Samples;Min_cycle;Max_cycle;Signal;HPM_P1;HPM_P2
2019/12/12 00:00:21;;;;;;;2;1.2;;;;;;;23.21;44.83887;951.4936;;;;
2019/12/12 00:02:41;;;;;;;1.4;1.1;;;;;;;23.16;44.90625;951.4815;;;;
2019/12/12 00:05:06;;;;;;;1.2;1.1;;;;;;;23.17;44.87012;951.4156;;;;
2019/12/12 00:07:31;;;;;;;1.2;0.9;;;;;;;23.13;44.91504;951.4414;;;;
2019/12/12 00:09:57;;;;;;;2.1;1;;;;;;;23.14;44.91602;951.3959;;;;
2019/12/12 00:12:21;;;;;;;1.2;0.9;;;;;;;23.08;44.96973;951.3713;;;;
2019/12/12 00:14:47;;;;;;;1.6;1;;;;;;;23.08;44.98242;951.3763;;;;
2019/12/12 00:17:12;;;;;;;1.6;1;;;;;;;23.08;44.98242;951.378;;;;
2019/12/12 00:19:37;;;;;;;1.4;0.9;;;;;;;23.04;45.03809;951.3943;;;;
2019/12/12 00:22:02;;;;;;;2.2;1.1;;;;;;;23.01;45.09668;951.3614;;;;
2019/12/12 00:24:27;;;;;;;1.6;1;;;;;;;23.01;45.10742;951.3222;;;;
2019/12/12 00:26:52;;;;;;;1.6;1;;;;;;;23.01;45.24023;951.2885;;;;
2019/12/12 00:29:17;;;;;;;1.8;1;;;;;;;22.99;45.27441;951.2919;;;;
2019/12/12 00:31:42;;;;;;;2.1;1;;;;;;;22.98;45.30957;951.287;;;;
2019/12/12 00:34:08;;;;;;;1.3;1.1;;;;;;;22.96;45.34375;951.2574;;;;
2019/12/12 00:36:33;;;;;;;1.7;1.1;;;;;;;22.95;45.34375;951.2885;;;;
2019/12/12 00:38:58;;;;;;;1.8;1;;;;;;;22.93;45.37793;951.2794;;;;
2019/12/12 00:41:23;;;;;;;1.3;1;;;;;;;22.94;45.36621;951.2621;;;;
2019/12/12 00:43:48;;;;;;;2.4;1;;;;;;;22.9;45.43359;951.188;;;;
2019/12/12 00:46:13;;;;;;;1.3;0.8;;;;;;;22.93;45.36621;951.1384;;;;
2019/12/12 00:48:59;;;;;;;1.2;0.9;;;;;;;22.91;45.36328;951.1125;;;;
2019/12/12 00:53:29;;;;;;;1.5;1;;;;;;;22.9;45.34961;951.0834;;;;
2019/12/12 00:58:19;;;;;;;1.4;0.9;;;;;;;22.87;45.40723;951.1251;;;;
2019/12/12 01:00:44;;;;;;;1.4;0.9;;;;;;;22.85;45.47656;951.1512;;;;
2019/12/12 01:03:09;;;;;;;1.3;1;;;;;;;22.84;45.48828;951.1619;;;;
2019/12/12 01:05:34;;;;;;;1.4;1;;;;;;;22.83;45.51172;951.1443;;;;
2019/12/12 01:08:00;;;;;;;1.4;0.9;;;;;;;22.8;45.5332;951.1263;;;;
2019/12/12 01:10:24;;;;;;;1.5;1;;;;;;;22.81;45.48535;951.1149;;;;
2019/12/12 01:12:50;;;;;;;1.2;0.9;;;;;;;22.78;45.51855;951.1161;;;;
2019/12/12 01:15:15;;;;;;;1.6;1.1;;;;;;;22.78;45.51855;951.0647;;;;
2019/12/12 01:17:40;;;;;;;1;0.9;;;;;;;22.78;45.48242;951.0527;;;;
2019/12/12 01:20:05;;;;;;;1.2;0.9;;;;;;;22.77;45.51758;950.9841;;;;
2019/12/12 01:22:30;;;;;;;1.4;1;;;;;;;22.75;45.51563;950.9639;;;;
2019/12/12 01:24:55;;;;;;;1.7;0.9;;;;;;;22.76;45.50488;950.9808;;;;
2019/12/12 01:27:20;;;;;;;1.6;0.9;;;;;;;22.76;45.45508;951.0284;;;;
2019/12/12 01:29:45;;;;;;;1.6;0.9;;;;;;;22.77;45.4209;951.0056;;;;
2019/12/12 01:32:13;;;;;;;1.1;0.9;;;;;;;22.76;45.39648;950.9542;;;;
2019/12/12 01:34:35;;;;;;;1.1;0.8;;;;;;;22.73;45.48926;950.9606;;;;
2019/12/12 01:37:01;;;;;;;1.3;0.8;;;;;;;22.73;45.45313;950.9324;;;;
2019/12/12 01:39:26;;;;;;;1.6;1;;;;;;;22.72;45.44043;950.9486;;;;
2019/12/12 01:41:51;;;;;;;1.2;0.9;;;;;;;22.71;45.43848;950.8914;;;;
2019/12/12 01:44:16;;;;;;;1.3;1;;;;;;;22.7;45.46191;950.8886;;;;
2019/12/12 01:46:41;;;;;;;1.1;0.9;;;;;;;22.71;45.4375;950.8422;;;;
2019/12/12 01:49:06;;;;;;;1.5;0.9;;;;;;;22.72;45.36816;950.7994;;;;
2019/12/12 01:51:31;;;;;;;1.9;0.8;;;;;;;22.73;45.34375;950.76;;;;
2019/12/12 01:53:56;;;;;;;1.4;0.9;;;;;;;22.69;45.38867;950.7461;;;;
2019/12/12 01:56:21;;;;;;;1.6;1;;;;;;;22.7;45.38965;950.7144;;;;
2019/12/12 01:58:46;;;;;;;2.1;1.1;;;;;;;22.69;45.37598;950.7173;;;;
2019/12/12 02:01:11;;;;;;;1.8;1;;;;;;;22.68;45.38672;950.6838;;;;
2019/12/12 02:03:37;;;;;;;1.6;0.9;;;;;;;22.67;45.38574;950.6732;;;;
2019/12/12 02:06:02;;;;;;;1.2;1;;;;;;;22.68;45.30371;950.6948;;;;
2019/12/12 02:08:27;;;;;;;2.2;0.8;;;;;;;22.6;45.75195;950.696;;;;
2019/12/12 02:10:52;;;;;;;1.4;0.9;;;;;;;22.65;45.66016;950.6992;;;;
2019/12/12 02:13:17;;;;;;;1;0.9;;;;;;;22.67;45.54297;950.6633;;;;
2019/12/12 02:15:45;;;;;;;1.5;1;;;;;;;22.69;45.44922;950.6333;;;;
2019/12/12 02:18:08;;;;;;;2;0.8;;;;;;;22.67;45.45801;950.5903;;;;
2019/12/12 02:20:42;;;;;;;1.4;1;;;;;;;22.72;45.34375;950.5865;;;;
2019/12/12 02:23:53;;;;;;;1.4;0.8;;;;;;;22.73;45.30859;950.5974;;;;
2019/12/12 02:25:34;;;;;;;1.9;0.8;;;;;;;22.73;45.29688;950.5393;;;;
2019/12/12 02:27:52;;;;;;;1;0.8;;;;;;;22.74;45.30957;950.6218;;;;
2019/12/12 02:30:13;;;;;;;1.1;0.8;;;;;;;22.72;45.34375;950.5699;;;;
2019/12/12 02:32:38;;;;;;;1.1;0.8;;;;;;;22.71;45.40332;950.4788;;;;
2019/12/12 02:35:04;;;;;;;1.2;0.8;;;;;;;22.71;45.42773;950.4788;;;;
2019/12/12 02:37:29;;;;;;;0.8;0.6;;;;;;;22.74;45.3457;950.4316;;;;
2019/12/12 02:39:54;;;;;;;1.6;0.9;;;;;;;22.72;45.38086;950.4344;;;;
2019/12/12 02:42:19;;;;;;;0.9;0.8;;;;;;;22.73;45.41699;950.4416;;;;
2019/12/12 02:44:45;;;;;;;1.8;0.8;;;;;;;22.73;45.41699;950.4194;;;;
2019/12/12 02:47:10;;;;;;;1;0.8;;;;;;;22.72;45.42871;950.4256;;;;
2019/12/12 02:49:35;;;;;;;1;0.8;;;;;;;22.73;45.45313;950.3984;;;;
2019/12/12 02:52:00;;;;;;;1.5;0.8;;;;;;;22.68;45.58008;950.3708;;;;
2019/12/12 02:54:25;;;;;;;1.2;0.8;;;;;;;22.7;45.49805;950.4111;;;;
2019/12/12 02:56:50;;;;;;;1.4;0.8;;;;;;;22.7;45.47363;950.3613;;;;
2019/12/12 02:59:15;;;;;;;1.8;1;;;;;;;22.68;45.48438;950.3431;;;;
2019/12/12 03:01:41;;;;;;;1.3;0.8;;;;;;;22.69;45.47266;950.4055;;;;
2019/12/12 03:04:06;;;;;;;0.9;0.8;;;;;;;22.69;45.45996;950.3823;;;;
2019/12/12 03:06:31;;;;;;;1.3;0.9;;;;;;;22.68;45.44824;950.4431;;;;
2019/12/12 03:08:56;;;;;;;1;0.7;;;;;;;22.68;45.45996;950.4216;;;;
2019/12/12 03:11:22;;;;;;;0.9;0.8;;;;;;;22.68;45.47168;950.3703;;;;
2019/12/12 03:13:47;;;;;;;1.4;0.9;;;;;;;22.69;45.41406;950.3739;;;;
2019/12/12 03:16:12;;;;;;;1;0.7;;;;;;;22.69;45.38867;950.3485;;;;
2019/12/12 03:18:37;;;;;;;1.8;0.7;;;;;;;22.67;45.45801;950.3664;;;;
2019/12/12 03:21:02;;;;;;;0.8;0.6;;;;;;;22.7;45.36523;950.3312;;;;
2019/12/12 03:23:27;;;;;;;1;0.8;;;;;;;22.68;45.40039;950.305;;;;
2019/12/12 03:25:52;;;;;;;1.3;0.9;;;;;;;22.69;45.37598;950.3326;;;;
2019/12/12 03:28:17;;;;;;;1.2;0.8;;;;;;;22.67;45.41113;950.3181;;;;
2019/12/12 03:30:43;;;;;;;1;0.8;;;;;;;22.7;45.3291;950.2756;;;;
2019/12/12 03:33:08;;;;;;;1.3;0.9;;;;;;;22.7;45.31738;950.2151;;;;
2019/12/12 03:35:33;;;;;;;1.8;0.8;;;;;;;22.7;45.31738;950.2159;;;;
2019/12/12 03:37:58;;;;;;;1.2;0.8;;;;;;;22.66;45.34961;950.2542;;;;
2019/12/12 03:40:24;;;;;;;2.2;0.9;;;;;;;22.58;45.58301;950.2294;;;;
2019/12/12 03:42:49;;;;;;;2.3;0.8;;;;;;;22.64;45.56445;950.1853;;;;
2019/12/12 03:45:14;;;;;;;2.2;0.7;;;;;;;22.67;45.4707;950.1641;;;;
2019/12/12 03:47:39;;;;;;;1.4;0.8;;;;;;;22.65;45.49316;950.1398;;;;
2019/12/12 03:50:04;;;;;;;1.2;0.7;;;;;;;22.67;45.39844;950.1021;;;;
2019/12/12 03:52:29;;;;;;;2.4;0.8;;;;;;;22.63;45.37012;950.1369;;;;
2019/12/12 03:54:55;;;;;;;3.1;1;;;;;;;22.61;45.33301;950.0369;;;;
2019/12/12 03:57:20;;;;;;;2.3;0.8;;;;;;;22.66;45.27637;950.0832;;;;
2019/12/12 03:59:45;;;;;;;1.1;0.8;;;;;;;22.67;45.25391;950.0761;;;;
2019/12/12 04:02:26;;;;;;;1.1;0.9;;;;;;;22.65;45.28809;950.0656;;;;
2019/12/12 04:04:51;;;;;;;2.2;0.8;;;;;;;22.65;45.27637;950.0784;;;;
2019/12/12 04:07:38;;;;;;;1.7;0.8;;;;;;;22.67;45.26563;950.0717;;;;
2019/12/12 04:13:01;;;;;;;1.4;0.9;;;;;;;22.65;45.32324;950.22;;;;
2019/12/12 04:14:32;;;;;;;1.4;0.8;;;;;;;22.64;45.33496;950.2405;;;;
2019/12/12 04:16:57;;;;;;;1.9;0.9;;;;;;;22.64;45.31152;950.2311;;;;
2019/12/12 04:19:22;;;;;;;1.7;0.9;;;;;;;22.65;45.32324;950.2084;;;;
2019/12/12 04:21:47;;;;;;;1;0.7;;;;;;;22.63;45.3584;950.2297;;;;
2019/12/12 04:24:12;;;;;;;1.9;0.8;;;;;;;22.62;45.36914;950.218;;;;
2019/12/12 04:26:37;;;;;;;1.3;0.7;;;;;;;22.6;45.41602;950.2299;;;;
2019/12/12 04:29:02;;;;;;;1.5;0.8;;;;;;;22.62;45.39258;950.1761;;;;
2019/12/12 04:31:27;;;;;;;1.1;0.7;;;;;;;22.61;45.38086;950.0883;;;;
2019/12/12 04:33:52;;;;;;;1.1;0.8;;;;;;;22.62;45.38086;950.1578;;;;
2019/12/12 04:36:18;;;;;;;1;0.7;;;;;;;22.61;45.40527;950.1866;;;;
2019/12/12 04:38:43;;;;;;;0.9;0.7;;;;;;;22.63;45.3457;950.2358;;;;
2019/12/12 04:41:08;;;;;;;2.1;0.8;;;;;;;22.61;45.36914;950.2;;;;
2019/12/12 04:43:33;;;;;;;1.2;0.8;;;;;;;22.62;45.3457;950.1754;;;;
2019/12/12 04:45:58;;;;;;;1.7;0.8;;;;;;;22.62;45.32129;950.197;;;;
2019/12/12 04:48:23;;;;;;;1.2;0.8;;;;;;;22.62;45.33301;950.2081;;;;
2019/12/12 04:50:48;;;;;;;1.1;0.8;;;;;;;22.61;45.35547;950.1756;;;;
2019/12/12 04:53:13;;;;;;;0.7;0.7;;;;;;;22.58;45.41406;950.1633;;;;
2019/12/12 04:55:38;;;;;;;1.2;0.7;;;;;;;22.59;45.38965;950.135;;;;
2019/12/12 04:58:03;;;;;;;0.8;0.7;;;;;;;22.58;45.41309;950.1234;;;;
2019/12/12 05:00:28;;;;;;;1.4;0.9;;;;;;;22.58;45.38965;950.1284;;;;
2019/12/12 05:02:54;;;;;;;1.2;0.7;;;;;;;22.54;45.43359;950.1442;;;;
2019/12/12 05:05:19;;;;;;;0.8;0.7;;;;;;;22.57;45.35254;950.1955;;;;
2019/12/12 05:07:44;;;;;;;0.9;0.8;;;;;;;22.57;45.32813;950.2761;;;;
2019/12/12 05:10:09;;;;;;;1.2;0.7;;;;;;;22.59;45.25781;950.3003;;;;
2019/12/12 05:12:34;;;;;;;1.7;0.7;;;;;;;22.54;45.3252;950.2453;;;;
2019/12/12 05:14:59;;;;;;;0.9;0.7;;;;;;;22.53;45.34863;950.2473;;;;
2019/12/12 05:17:24;;;;;;;0.8;0.6;;;;;;;22.52;45.33496;950.2497;;;;
2019/12/12 05:19:49;;;;;;;1;0.7;;;;;;;22.5;45.37012;950.2375;;;;
2019/12/12 05:22:17;;;;;;;2;0.7;;;;;;;22.5;45.33398;950.2026;;;;
2019/12/12 05:27:04;;;;;;;1.1;0.7;;;;;;;22.49;45.29688;950.2289;;;;
2019/12/12 05:29:30;;;;;;;1;0.7;;;;;;;22.49;45.30762;950.288;;;;
2019/12/12 05:31:55;;;;;;;1.2;0.8;;;;;;;22.47;45.33008;950.2823;;;;
2019/12/12 05:34:20;;;;;;;1.1;0.6;;;;;;;22.48;45.29492;950.3175;;;;
2019/12/12 05:36:45;;;;;;;1.7;0.8;;;;;;;22.45;45.31641;950.3337;;;;
2019/12/12 05:39:10;;;;;;;1;0.7;;;;;;;22.45;45.31543;950.3156;;;;
2019/12/12 05:41:35;;;;;;;0.9;0.6;;;;;;;22.47;45.27051;950.3055;;;;
2019/12/12 05:44:00;;;;;;;1.6;0.7;;;;;;;22.44;45.29102;950.2805;;;;
2019/12/12 05:46:25;;;;;;;0.9;0.7;;;;;;;22.44;45.2666;950.3108;;;;
2019/12/12 05:48:50;;;;;;;0.6;0.6;;;;;;;22.42;45.30078;950.3125;;;;
2019/12/12 05:51:15;;;;;;;1;0.7;;;;;;;22.39;45.34668;950.3105;;;;
2019/12/12 05:53:41;;;;;;;1.3;0.7;;;;;;;22.4;45.32324;950.3134;;;;
2019/12/12 05:56:06;;;;;;;0.9;0.7;;;;;;;22.39;45.34668;950.3675;;;;
2019/12/12 05:58:31;;;;;;;1.7;0.7;;;;;;;22.38;45.32129;950.3168;;;;
2019/12/12 06:00:56;;;;;;;0.7;0.7;;;;;;;22.37;45.34375;950.3618;;;;
2019/12/12 06:03:21;;;;;;;1.1;0.7;;;;;;;22.37;45.31934;950.3806;;;;
2019/12/12 06:05:46;;;;;;;0.8;0.6;;;;;;;22.38;45.28516;950.3727;;;;
2019/12/12 06:08:12;;;;;;;2.6;0.7;;;;;;;22.37;45.27148;950.3656;;;;
2019/12/12 06:10:37;;;;;;;0.8;0.7;;;;;;;22.34;45.3291;950.3692;;;;
2019/12/12 06:13:02;;;;;;;0.9;0.6;;;;;;;22.36;45.28223;950.3499;;;;
2019/12/12 06:15:27;;;;;;;1.1;0.7;;;;;;;22.33;45.31641;950.3488;;;;
2019/12/12 06:17:53;;;;;;;0.7;0.6;;;;;;;22.36;45.27051;950.353;;;;
2019/12/12 06:20:57;;;;;;;0.8;0.6;;;;;;;22.33;45.30371;950.3378;;;;
2019/12/12 06:22:42;;;;;;;0.7;0.7;;;;;;;22.32;45.31445;950.3574;;;;
2019/12/12 06:25:15;;;;;;;1.2;0.7;;;;;;;22.3;45.33691;950.3872;;;;
2019/12/12 06:27:40;;;;;;;1.2;0.8;;;;;;;22.34;45.26855;950.4012;;;;
2019/12/12 06:30:05;;;;;;;0.8;0.6;;;;;;;22.3;45.31348;950.4088;;;;
2019/12/12 06:32:30;;;;;;;1;0.7;;;;;;;22.29;45.3125;950.3923;;;;
2019/12/12 06:34:55;;;;;;;2.4;0.6;;;;;;;22.29;45.32324;950.3764;;;;
2019/12/12 06:37:20;;;;;;;0.8;0.7;;;;;;;22.28;45.33594;950.3683;;;;
2019/12/12 06:39:45;;;;;;;0.9;0.7;;;;;;;22.28;45.31055;950.3514;;;;
2019/12/12 06:42:10;;;;;;;0.9;0.6;;;;;;;22.27;45.33398;950.3273;;;;
2019/12/12 06:44:35;;;;;;;1.7;0.7;;;;;;;22.26;45.34473;950.3125;;;;
2019/12/12 06:47:00;;;;;;;0.7;0.5;;;;;;;22.26;45.34473;950.296;;;;
2019/12/12 06:49:25;;;;;;;0.8;0.6;;;;;;;22.26;45.30859;950.2833;;;;
2019/12/12 06:51:50;;;;;;;0.9;0.7;;;;;;;22.24;45.30664;950.2598;;;;
2019/12/12 06:54:15;;;;;;;1;0.6;;;;;;;22.25;45.29492;950.2404;;;;
2019/12/12 06:56:41;;;;;;;1.6;0.7;;;;;;;22.24;45.31836;950.2358;;;;
2019/12/12 06:59:06;;;;;;;0.8;0.6;;;;;;;22.23;45.30566;950.2183;;;;
2019/12/12 07:01:31;;;;;;;0.8;0.6;;;;;;;22.24;45.2832;950.1984;;;;
2019/12/12 07:03:56;;;;;;;0.9;0.6;;;;;;;22.22;45.30469;950.183;;;;
2019/12/12 07:06:21;;;;;;;3.3;0.6;;;;;;;22.17;45.4082;950.2245;;;;
2019/12/12 07:08:46;;;;;;;0.9;0.7;;;;;;;22.22;45.26855;950.1964;;;;
2019/12/12 07:11:11;;;;;;;0.8;0.7;;;;;;;22.22;45.28125;950.1996;;;;
2019/12/12 07:13:36;;;;;;;0.9;0.7;;;;;;;22.23;45.26855;950.2255;;;;
2019/12/12 07:16:01;;;;;;;1.5;0.6;;;;;;;22.21;45.29102;950.243;;;;
2019/12/12 07:18:49;;;;;;;1.3;0.7;;;;;;;22.22;45.28027;950.2346;;;;
2019/12/12 07:23:17;;;;;;;1.8;0.7;;;;;;;22.21;45.25391;950.2043;;;;
2019/12/12 07:25:41;;;;;;;0.8;0.6;;;;;;;22.21;45.24414;950.2175;;;;
2019/12/12 07:28:06;;;;;;;1.2;0.8;;;;;;;22.2;45.25391;950.2528;;;;
2019/12/12 07:30:31;;;;;;;0.9;0.7;;;;;;;22.19;45.27734;950.2562;;;;
2019/12/12 07:32:57;;;;;;;0.7;0.6;;;;;;;22.2;45.23047;950.2429;;;;
2019/12/12 07:35:22;;;;;;;1.3;0.6;;;;;;;22.2;45.21777;950.228;;;;
2019/12/12 07:37:47;;;;;;;0.8;0.6;;;;;;;22.2;45.24219;950.2241;;;;
2019/12/12 07:40:12;;;;;;;0.9;0.7;;;;;;;22.2;45.25391;950.2472;;;;
2019/12/12 07:42:37;;;;;;;0.6;0.6;;;;;;;22.19;45.28906;950.259;;;;
2019/12/12 07:45:02;;;;;;;0.6;0.5;;;;;;;22.23;45.2334;950.2785;;;;
2019/12/12 07:47:27;;;;;;;2;0.8;;;;;;;22.23;45.24512;950.3095;;;;
2019/12/12 07:49:52;;;;;;;1;0.6;;;;;;;22.23;45.2334;950.2482;;;;
2019/12/12 07:52:17;;;;;;;0.7;0.6;;;;;;;22.22;45.24512;950.2676;;;;
2019/12/12 07:54:42;;;;;;;0.7;0.6;;;;;;;22.24;45.21094;950.2896;;;;
2019/12/12 07:57:07;;;;;;;1.1;0.7;;;;;;;22.21;45.26758;950.2717;;;;
2019/12/12 07:59:32;;;;;;;0.8;0.6;;;;;;;22.22;45.28125;950.3339;;;;
2019/12/12 08:01:57;;;;;;;0.7;0.5;;;;;;;22.21;45.29199;950.3169;;;;
2019/12/12 08:06:48;;;;;;;0.8;0.6;;;;;;;22.22;45.28027;950.361;;;;
2019/12/12 08:09:13;;;;;;;1.1;0.6;;;;;;;22.22;45.26855;950.3108;;;;
2019/12/12 08:11:38;;;;;;;2;0.7;;;;;;;22.23;45.25684;950.3261;;;;
2019/12/12 08:14:03;;;;;;;0.9;0.6;;;;;;;22.22;45.26855;950.3234;;;;
2019/12/12 08:16:28;;;;;;;0.8;0.6;;;;;;;22.21;45.30469;950.3683;;;;
2019/12/12 08:18:53;;;;;;;0.9;0.6;;;;;;;22.23;45.2334;950.3276;;;;
2019/12/12 08:21:18;;;;;;;0.5;0.5;;;;;;;22.26;45.2002;950.3949;;;;
2019/12/12 08:23:43;;;;;;;0.8;0.6;;;;;;;22.22;45.26855;950.3339;;;;
2019/12/12 08:26:08;;;;;;;1.1;0.7;;;;;;;22.25;45.21191;950.3552;;;;
2019/12/12 08:28:34;;;;;;;1;0.7;;;;;;;22.22;45.25684;950.3272;;;;
2019/12/12 08:30:59;;;;;;;2.3;0.5;;;;;;;22.24;45.21094;950.3592;;;;
2019/12/12 08:33:24;;;;;;;0.5;0.5;;;;;;;22.24;45.21094;950.3741;;;;
2019/12/12 08:35:49;;;;;;;0.8;0.6;;;;;;;22.23;45.26855;950.3444;;;;
2019/12/12 08:40:39;;;;;;;1;0.7;;;;;;;22.22;45.29199;950.3257;;;;
2019/12/12 08:43:05;;;;;;;0.7;0.6;;;;;;;22.22;45.29297;950.3422;;;;
2019/12/12 08:45:30;;;;;;;1.9;0.6;;;;;;;22.24;45.2334;950.3105;;;;
2019/12/12 08:47:55;;;;;;;0.7;0.5;;;;;;;22.23;45.28125;950.3459;;;;
2019/12/12 08:50:20;;;;;;;1.7;1.3;;;;;;;22.09;44.28125;950.3643;;;;
2019/12/12 08:52:45;;;;;;;2;1.8;;;;;;;22.12;42.43066;950.3331;;;;
2019/12/12 08:55:10;;;;;;;2.5;1.8;;;;;;;22.13;42.0459;950.3641;;;;
2019/12/12 08:57:36;;;;;;;3.4;1.4;;;;;;;22.12;43.33301;950.3696;;;;
2019/12/12 09:00:01;;;;;;;6;2.1;;;;;;;22.08;41.46484;950.3881;;;;
2019/12/12 09:02:26;;;;;;;6.2;2.2;;;;;;;22.01;41.34961;950.3246;;;;
2019/12/12 09:04:51;;;;;;;4.1;2.2;;;;;;;21.94;40.99316;950.3397;;;;
2019/12/12 09:07:16;;;;;;;3.6;2.3;;;;;;;21.93;41.49805;950.3083;;;;
2019/12/12 09:09:41;;;;;;;6;2.2;;;;;;;21.87;41.43262;950.334;;;;
2019/12/12 09:12:06;;;;;;;3.6;1.7;;;;;;;21.95;42.0293;950.3563;;;;
2019/12/12 09:14:44;;;;;;;4.3;1.3;;;;;;;22;43.09277;950.342;;;;
2019/12/12 09:19:21;;;;;;;1.8;1.1;;;;;;;22;43.63379;950.3778;;;;
2019/12/12 09:21:47;;;;;;;6.6;1.2;;;;;;;21.93;43.9873;950.379;;;;
2019/12/12 09:24:12;;;;;;;19.8;2.3;;;;;;;21.97;44.24512;950.3239;;;;
2019/12/12 09:26:37;;;;;;;29.7;4.3;;;;;;;21.91;44.32129;950.3525;;;;
2019/12/12 09:29:03;;;;;;;23.7;4.4;;;;;;;21.9;44.17773;950.3739;;;;
2019/12/12 09:31:28;;;;;;;22.3;4.2;;;;;;;21.88;43.88672;950.3565;;;;
2019/12/12 09:33:53;;;;;;;17.1;4;;;;;;;21.87;43.84961;950.3186;;;;
2019/12/12 09:36:18;;;;;;;21.8;4.4;;;;;;;21.87;43.66895;950.3167;;;;
2019/12/12 09:38:43;;;;;;;20;4.1;;;;;;;21.86;43.64355;950.2971;;;;
2019/12/12 09:41:08;;;;;;;16;3.3;;;;;;;21.88;43.65723;950.2743;;;;
2019/12/12 09:43:33;;;;;;;14.1;2.8;;;;;;;21.9;44.29785;950.2447;;;;
2019/12/12 09:45:58;;;;;;;12.1;2.7;;;;;;;21.87;44.60742;950.2711;;;;
2019/12/12 09:48:24;;;;;;;13.7;3;;;;;;;21.89;44.60938;950.2267;;;;
2019/12/12 09:50:49;;;;;;;11.8;2.6;;;;;;;21.89;44.65723;950.2178;;;;
2019/12/12 09:53:14;;;;;;;9.9;2.5;;;;;;;21.89;44.69238;950.2394;;;;
2019/12/12 09:55:39;;;;;;;10.8;2.6;;;;;;;21.9;44.6582;950.1763;;;;
2019/12/12 09:58:04;;;;;;;9.8;2.6;;;;;;;21.86;44.82227;950.1948;;;;
2019/12/12 10:00:29;;;;;;;9.4;2.4;;;;;;;21.88;44.75293;950.1489;;;;
2019/12/12 10:02:54;;;;;;;7.6;2.4;;;;;;;21.9;44.75488;950.1691;;;;
2019/12/12 10:05:20;;;;;;;7.8;2.6;;;;;;;21.89;44.76563;950.1394;;;;
2019/12/12 10:07:45;;;;;;;12;2.6;;;;;;;21.84;44.82129;950.0836;;;;
2019/12/12 10:10:10;;;;;;;9.4;2.6;;;;;;;21.88;44.36719;950.0556;;;;
2019/12/12 10:12:35;;;;;;;7.8;2.3;;;;;;;21.89;44.59766;950.0273;;;;
2019/12/12 10:15:00;;;;;;;8.1;2.2;;;;;;;21.89;44.62109;950.0223;;;;
2019/12/12 10:17:25;;;;;;;9;2.4;;;;;;;21.84;44.72559;949.9263;;;;
2019/12/12 10:19:50;;;;;;;7.9;2.3;;;;;;;21.8;44.80469;949.9089;;;;
2019/12/12 10:23:15;;;;;;;9.1;2.3;;;;;;;21.84;44.76074;949.8639;;;;
2019/12/12 10:29:30;;;;;;;8.5;2.5;;;;;;;21.79;44.83984;949.8095;;;;
2019/12/12 10:31:56;;;;;;;8.9;2.4;;;;;;;21.81;44.8418;949.7703;;;;
2019/12/12 10:34:23;;;;;;;7.5;2.2;;;;;;;21.8;44.81738;949.7195;;;;
2019/12/12 10:36:48;;;;;;;8.9;2.4;;;;;;;21.76;44.95703;949.6875;;;;
2019/12/12 10:39:13;;;;;;;8;2.3;;;;;;;21.81;44.81836;949.694;;;;
2019/12/12 10:41:38;;;;;;;8.9;2.2;;;;;;;21.8;44.80469;949.6467;;;;
2019/12/12 10:44:04;;;;;;;6.8;2.1;;;;;;;21.83;44.80762;949.627;;;;
2019/12/12 10:46:29;;;;;;;7.9;2.3;;;;;;;21.81;44.83008;949.6096;;;;
2019/12/12 10:48:54;;;;;;;8.6;2.2;;;;;;;21.79;44.86328;949.5909;;;;
2019/12/12 10:51:19;;;;;;;6.8;2;;;;;;;21.8;44.82813;949.5153;;;;
2019/12/12 10:53:44;;;;;;;7.3;2.1;;;;;;;21.77;44.89746;949.5344;;;;
2019/12/12 10:56:09;;;;;;;8.5;2.4;;;;;;;21.79;44.86328;949.4922;;;;
2019/12/12 10:58:34;;;;;;;7;2.2;;;;;;;21.8;44.81738;949.5345;;;;
2019/12/12 11:00:59;;;;;;;6;2;;;;;;;21.78;44.875;949.4817;;;;
2019/12/12 11:03:24;;;;;;;9.2;2.3;;;;;;;21.77;44.89746;949.4714;;;;
2019/12/12 11:05:50;;;;;;;6.2;2;;;;;;;21.78;44.875;949.4338;;;;
2019/12/12 11:08:15;;;;;;;6.1;1.9;;;;;;;21.79;44.85156;949.4175;;;;
2019/12/12 11:10:40;;;;;;;6.2;2.2;;;;;;;21.78;44.83984;949.4166;;;;
2019/12/12 11:13:05;;;;;;;6.1;2.1;;;;;;;21.74;44.91895;949.3391;;;;
2019/12/12 11:15:30;;;;;;;4.5;1.8;;;;;;;21.75;44.93262;949.3425;;;;
2019/12/12 11:17:55;;;;;;;6.8;2;;;;;;;21.71;45.00098;949.2952;;;;
2019/12/12 11:20:20;;;;;;;6.7;2.1;;;;;;;21.72;44.98926;949.2964;;;;
2019/12/12 11:23:03;;;;;;;5.2;2.1;;;;;;;21.7;45.03613;949.3423;;;;
2019/12/12 11:25:16;;;;;;;6.4;2;;;;;;;21.74;44.94238;949.2614;;;;
2019/12/12 11:30:00;;;;;;;5.8;1.8;;;;;;;21.69;45.03418;949.2297;;;;
2019/12/12 11:32:26;;;;;;;7;2.2;;;;;;;21.72;44.95313;949.2389;;;;
2019/12/12 11:34:51;;;;;;;5.4;1.9;;;;;;;21.69;45.02148;949.2115;;;;
2019/12/12 11:37:16;;;;;;;5.3;1.9;;;;;;;21.7;44.9873;949.1949;;;;
2019/12/12 11:39:41;;;;;;;5.9;1.9;;;;;;;21.68;45.00879;949.1362;;;;
2019/12/12 11:42:06;;;;;;;5;1.7;;;;;;;21.7;44.9873;949.1982;;;;
2019/12/12 11:44:31;;;;;;;4.6;1.8;;;;;;;21.68;44.98535;949.1522;;;;
2019/12/12 11:46:56;;;;;;;4.6;1.7;;;;;;;21.67;44.99609;949.0627;;;;
2019/12/12 11:49:21;;;;;;;5.1;1.6;;;;;;;21.67;44.99609;949.045;;;;
2019/12/12 12:07:02;;;;;;;1.5;1.4;;;;;;;9.28;57.84473;948.8653;;;;
2019/12/12 12:09:27;;;;;;;1.7;1.6;;;;;;;8.2;63.33984;948.9161;;;;
2019/12/12 12:11:52;;;;;;;1.7;1.6;;;;;;;7.41;65.87695;948.9272;;;;
2019/12/12 12:14:17;;;;;;;2.2;1.8;;;;;;;6.72;69.11621;948.9323;;;;
2019/12/12 12:16:42;;;;;;;1.9;1.7;;;;;;;6.42;70.93848;948.9285;;;;
2019/12/12 12:19:07;;;;;;;4.1;1.8;;;;;;;6.07;72.75879;948.9456;;;;
2019/12/12 12:21:32;;;;;;;1.8;1.7;;;;;;;5.72;73.65918;948.8759;;;;
2019/12/12 12:23:57;;;;;;;2.4;2.2;;;;;;;5.63;75.21973;948.8308;;;;
2019/12/12 12:26:23;;;;;;;2.2;2;;;;;;;5.64;75.62891;948.8172;;;;
2019/12/12 12:28:48;;;;;;;2.1;1.9;;;;;;;5.48;75.51953;948.7645;;;;
2019/12/12 12:31:13;;;;;;;3;1.8;;;;;;;5.66;75.17969;948.8301;;;;
2019/12/12 12:33:38;;;;;;;2.3;2;;;;;;;5.51;76.08008;948.7726;;;;
2019/12/12 12:36:03;;;;;;;3.2;2.3;;;;;;;5.39;76.17285;948.7157;;;;
2019/12/12 12:38:28;;;;;;;2.6;2.4;;;;;;;5.27;76.28125;948.6694;;;;
2019/12/12 12:40:53;;;;;;;2.7;2.2;;;;;;;5.15;76.49023;948.6509;;;;
2019/12/12 12:43:18;;;;;;;2.5;2.3;;;;;;;5.22;76.51465;948.6989;;;;
2019/12/12 12:45:43;;;;;;;2.5;2.3;;;;;;;5.17;77.02637;948.6539;;;;
2019/12/12 12:48:09;;;;;;;3.4;2.5;;;;;;;5.1;77.70801;948.6967;;;;
2019/12/12 12:50:33;;;;;;;3;2.7;;;;;;;5.23;77.51074;948.6934;;;;
2019/12/12 12:52:59;;;;;;;3;2.7;;;;;;;5.25;77.36621;948.6326;;;;
2019/12/12 12:55:24;;;;;;;2.9;2.7;;;;;;;5.17;77.31543;948.5991;;;;
2019/12/12 12:57:49;;;;;;;3.6;2.7;;;;;;;5.24;76.60059;948.5555;;;;
2019/12/12 13:00:15;;;;;;;2.6;2.4;;;;;;;5.21;76.65332;948.5516;;;;
2019/12/12 13:02:39;;;;;;;3.4;2.6;;;;;;;5.23;76.8418;948.5294;;;;
2019/12/12 13:05:04;;;;;;;3.2;2.9;;;;;;;5.09;77.49805;948.4972;;;;
2019/12/12 13:07:29;;;;;;;3.6;3.3;;;;;;;5.12;77.5957;948.4792;;;;
2019/12/12 13:09:54;;;;;;;3.7;3.4;;;;;;;5.14;77.94727;948.4655;;;;
2019/12/12 13:12:19;;;;;;;3.8;3.4;;;;;;;5.21;78.04102;948.4055;;;;
2019/12/12 13:14:44;;;;;;;3.8;3.4;;;;;;;5.27;77.85449;948.4102;;;;
2019/12/12 13:17:09;;;;;;;3.9;3.6;;;;;;;5.18;77.36523;948.4006;;;;
2019/12/12 13:19:35;;;;;;;4.6;4;;;;;;;5.24;77.45703;948.3588;;;;
2019/12/12 13:22:00;;;;;;;5.7;3.9;;;;;;;5.15;77.74023;948.3762;;;;
2019/12/12 13:24:25;;;;;;;4;3.6;;;;;;;5.12;78.01172;948.3858;;;;
2019/12/12 13:26:50;;;;;;;4;3.6;;;;;;;5.17;77.4541;948.3176;;;;
2019/12/12 13:29:15;;;;;;;4.2;3.9;;;;;;;5.17;78.11426;948.3292;;;;
2019/12/12 13:31:40;;;;;;;4.5;3.7;;;;;;;5.27;77.37988;948.3361;;;;
2019/12/12 13:34:05;;;;;;;4.9;3.7;;;;;;;5.08;76.35059;948.335;;;;
2019/12/12 13:36:30;;;;;;;4.1;3.7;;;;;;;5.13;77.77051;948.2587;;;;
2019/12/12 13:38:55;;;;;;;4;3.7;;;;;;;5.03;77.18555;948.2371;;;;
2019/12/12 13:41:20;;;;;;;4;3.6;;;;;;;4.99;77.99902;948.2124;;;;
2019/12/12 13:43:45;;;;;;;4.2;3.8;;;;;;;5.11;78.06836;948.2426;;;;
2019/12/12 13:46:11;;;;;;;4.6;4.2;;;;;;;5.14;78.07422;948.2308;;;;
2019/12/12 13:48:36;;;;;;;4.4;4;;;;;;;5.15;77.43945;948.1772;;;;
2019/12/12 13:51:01;;;;;;;4.4;4;;;;;;;5.12;78.01367;948.1356;;;;
2019/12/12 13:54:50;;;;;;;4;3.7;;;;;;;5.18;77.31836;948.1765;;;;
2019/12/12 13:57:15;;;;;;;4.3;3.8;;;;;;;5.26;76.92773;948.1435;;;;
2019/12/12 13:59:40;;;;;;;4.7;4.3;;;;;;;5.35;77.11719;948.1086;;;;
2019/12/12 14:02:05;;;;;;;4.5;4.1;;;;;;;5.37;76.73828;948.1281;;;;
2019/12/12 14:04:30;;;;;;;4.8;4;;;;;;;5.24;76.87891;948.0837;;;;
2019/12/12 14:06:56;;;;;;;4.4;4;;;;;;;5.13;77.1123;948.0586;;;;
2019/12/12 14:09:21;;;;;;;3.8;3.4;;;;;;;5.33;76.47754;948.0676;;;;
2019/12/12 14:11:46;;;;;;;4.2;3.8;;;;;;;5.36;76.65625;948.0761;;;;
2019/12/12 14:14:11;;;;;;;4;3.7;;;;;;;5.4;75.99023;948.0781;;;;
2019/12/12 14:16:36;;;;;;;3.9;3.5;;;;;;;5.29;76.89941;948.0366;;;;
2019/12/12 14:19:01;;;;;;;4;3.6;;;;;;;5.36;76.84082;948.0148;;;;
2019/12/12 14:21:26;;;;;;;4.1;3.7;;;;;;;5.31;76.77344;948.0259;;;;
2019/12/12 14:23:51;;;;;;;4;3.6;;;;;;;5.38;76.55469;947.9962;;;;
2019/12/12 14:26:16;;;;;;;4;3.6;;;;;;;5.44;76.78613;947.9731;;;;
2019/12/12 14:28:41;;;;;;;5.2;3.7;;;;;;;5.4;76.63867;947.9378;;;;
2019/12/12 14:31:06;;;;;;;5.3;3.6;;;;;;;5.39;76.41699;947.9069;;;;
2019/12/12 14:33:34;;;;;;;3.9;3.5;;;;;;;5.44;75.89453;947.8495;;;;
2019/12/12 14:38:22;;;;;;;3.6;3.3;;;;;;;5.35;76.50391;947.8497;;;;
2019/12/12 14:40:47;;;;;;;4.4;3.1;;;;;;;5.36;76.2373;947.8036;;;;
2019/12/12 14:43:12;;;;;;;3.2;2.8;;;;;;;5.41;76.03809;947.8466;;;;
2019/12/12 14:45:37;;;;;;;3.2;2.9;;;;;;;5.36;75.38086;947.8203;;;;
2019/12/12 14:48:02;;;;;;;3.3;3;;;;;;;5.35;75.21875;947.7626;;;;
2019/12/12 14:50:27;;;;;;;3.3;2.8;;;;;;;5.3;75.38281;947.7128;;;;
2019/12/12 14:52:52;;;;;;;3.9;2.9;;;;;;;5.41;75.04395;947.7156;;;;
2019/12/12 14:55:17;;;;;;;3.3;3;;;;;;;5.26;75.30566;947.7729;;;;
2019/12/12 14:57:43;;;;;;;4.5;3;;;;;;;5.32;75.22363;947.7528;;;;
2019/12/12 15:00:08;;;;;;;2.6;2.4;;;;;;;5.12;75.07227;947.7288;;;;
2019/12/12 15:02:33;;;;;;;2.6;2.4;;;;;;;5.08;75.40234;947.7645;;;;